createdAt,value
2022-11-09T00:01:18.801Z,86.66
2022-11-09T00:03:46.899Z,86.34
2022-11-09T00:06:16.076Z,86.90
2022-11-09T00:08:43.831Z,87.30
2022-11-09T00:11:12.836Z,87.18
2022-11-09T00:13:42.318Z,87.22
2022-11-09T00:16:11.401Z,86.12
2022-11-09T00:18:39.630Z,86.62
2022-11-09T00:21:08.149Z,86.78
2022-11-09T00:23:37.508Z,87.04
2022-11-09T00:26:08.580Z,86.37
2022-11-09T00:28:36.665Z,87.57
2022-11-09T00:31:07.606Z,88.45
2022-11-09T00:33:36.319Z,87.81
2022-11-09T00:36:08.292Z,88.66
2022-11-09T00:38:38.336Z,88.94
2022-11-09T00:41:07.309Z,88.30
2022-11-09T00:43:35.407Z,88.85
2022-11-09T00:46:03.713Z,89.80
2022-11-09T00:48:31.966Z,89.37
2022-11-09T00:50:59.908Z,89.47
2022-11-09T00:53:28.430Z,90.12
2022-11-09T00:55:58.864Z,90.33
2022-11-09T00:58:27.667Z,90.34
2022-11-09T01:00:56.286Z,90.71
2022-11-09T01:03:26.524Z,91.17
2022-11-09T01:05:54.486Z,91.50
2022-11-09T01:08:22.253Z,91.66
2022-11-09T01:10:50.118Z,91.43
2022-11-09T01:13:20.659Z,91.18
2022-11-09T01:15:50.279Z,91.07
2022-11-09T01:18:19.681Z,91.31
2022-11-09T01:20:51.064Z,90.93
2022-11-09T01:23:20.133Z,90.97
2022-11-09T01:25:48.129Z,91.06
2022-11-09T01:28:16.016Z,91.45
2022-11-09T01:30:45.165Z,91.86
2022-11-09T01:33:13.275Z,91.27
2022-11-09T01:35:42.063Z,91.35
2022-11-09T01:38:10.465Z,92.00
2022-11-09T01:40:40.249Z,91.74
2022-11-09T01:43:15.510Z,92.07
2022-11-09T01:45:49.473Z,91.86
2022-11-09T01:48:21.304Z,91.63
2022-11-09T01:50:52.761Z,91.53
2022-11-09T01:53:24.007Z,91.86
2022-11-09T01:55:55.704Z,92.30
2022-11-09T01:58:26.938Z,92.70
2022-11-09T02:00:59.884Z,92.40
2022-11-09T02:03:32.523Z,92.94
2022-11-09T02:06:02.573Z,92.42
2022-11-09T02:08:30.308Z,93.05
2022-11-09T02:11:07.779Z,93.20
2022-11-09T02:13:37.782Z,92.64
2022-11-09T02:16:08.296Z,93.50
2022-11-09T02:18:37.619Z,93.15
2022-11-09T02:21:07.316Z,93.77
2022-11-09T02:23:35.227Z,93.56
2022-11-09T02:26:08.267Z,93.98
2022-11-09T02:28:37.376Z,93.83
2022-11-09T02:31:11.438Z,93.53
2022-11-09T02:33:47.308Z,93.80
2022-11-09T02:36:16.373Z,93.64
2022-11-09T02:38:44.270Z,93.00
2022-11-09T02:41:13.969Z,93.66
2022-11-09T02:43:41.775Z,92.68
2022-11-09T02:46:10.084Z,92.78
2022-11-09T02:48:37.874Z,92.88
2022-11-09T02:51:05.820Z,92.40
2022-11-09T02:53:35.038Z,92.48
2022-11-09T02:56:03.366Z,92.70
2022-11-09T02:58:31.335Z,92.41
2022-11-09T03:00:59.122Z,92.39
2022-11-09T03:03:26.948Z,91.69
2022-11-09T03:05:54.691Z,91.70
2022-11-09T03:08:22.410Z,91.20
2022-11-09T03:10:51.866Z,91.53
2022-11-09T03:13:19.836Z,92.07
2022-11-09T03:15:47.879Z,91.74
2022-11-09T03:18:15.551Z,91.77
2022-11-09T03:20:43.250Z,91.40
2022-11-09T03:23:11.930Z,91.90
2022-11-09T03:25:39.702Z,91.42
2022-11-09T03:28:08.957Z,91.67
2022-11-09T03:30:36.728Z,91.83
2022-11-09T03:33:09.980Z,91.54
2022-11-09T03:35:37.991Z,91.39
2022-11-09T03:38:05.840Z,91.19
2022-11-09T03:40:34.117Z,91.25
2022-11-09T03:43:02.047Z,91.73
2022-11-09T03:45:32.309Z,91.96
2022-11-09T03:48:00.879Z,91.18
2022-11-09T03:50:30.471Z,91.52
2022-11-09T03:52:58.599Z,91.31
2022-11-09T03:55:27.163Z,91.11
2022-11-09T03:57:55.244Z,91.63
2022-11-09T04:00:24.147Z,91.43
2022-11-09T04:02:53.612Z,91.83
2022-11-09T04:05:22.119Z,92.17
2022-11-09T04:07:51.040Z,91.65
2022-11-09T04:10:19.589Z,91.71
2022-11-09T04:12:47.664Z,91.59
2022-11-09T04:15:15.487Z,91.97
2022-11-09T04:17:44.576Z,91.95
2022-11-09T04:20:14.188Z,92.70
2022-11-09T04:22:41.930Z,92.88
2022-11-09T04:25:10.037Z,92.82
2022-11-09T04:27:37.794Z,92.45
2022-11-09T04:30:06.785Z,92.45
2022-11-09T04:32:34.536Z,92.10
2022-11-09T04:35:02.270Z,92.20
2022-11-09T04:37:31.417Z,92.40
2022-11-09T04:39:59.226Z,92.54
2022-11-09T04:42:27.070Z,93.07
2022-11-09T04:44:54.793Z,92.80
2022-11-09T04:47:22.645Z,93.35
2022-11-09T04:49:50.463Z,93.08
2022-11-09T04:52:18.228Z,92.67
2022-11-09T04:54:47.343Z,92.74
2022-11-09T04:57:15.137Z,92.71
2022-11-09T04:59:42.921Z,92.69
2022-11-09T05:02:10.672Z,93.04
2022-11-09T05:04:38.456Z,93.17
2022-11-09T05:07:06.256Z,92.94
2022-11-09T05:09:34.183Z,92.82
2022-11-09T05:12:03.295Z,92.74
2022-11-09T05:14:31.058Z,92.64
2022-11-09T05:16:58.831Z,92.66
2022-11-09T05:19:26.628Z,93.02
2022-11-09T05:21:54.434Z,92.36
2022-11-09T05:24:21.195Z,93.01
2022-11-09T05:26:49.202Z,93.32
2022-11-09T05:29:18.335Z,92.91
2022-11-09T05:31:51.951Z,93.79
2022-11-09T05:34:20.170Z,93.63
2022-11-09T05:36:47.985Z,93.58
2022-11-09T05:39:15.800Z,93.53
2022-11-09T05:41:43.564Z,92.93
2022-11-09T05:44:11.368Z,93.21
2022-11-09T05:46:40.437Z,93.31
2022-11-09T05:49:08.167Z,93.22
2022-11-09T05:51:35.924Z,93.37
2022-11-09T05:54:03.791Z,93.51
2022-11-09T05:56:31.635Z,93.53
2022-11-09T05:58:59.556Z,93.15
2022-11-09T06:01:27.431Z,93.17
2022-11-09T06:03:56.613Z,93.45
2022-11-09T06:06:24.446Z,92.93
2022-11-09T06:08:52.588Z,92.52
2022-11-09T06:11:23.973Z,93.14
2022-11-09T06:13:53.065Z,93.37
2022-11-09T06:16:21.427Z,93.45
2022-11-09T06:18:49.230Z,93.44
2022-11-09T06:21:19.090Z,92.69
2022-11-09T06:23:46.867Z,92.99
2022-11-09T06:26:14.998Z,93.11
2022-11-09T06:28:43.434Z,93.41
2022-11-09T06:31:13.337Z,93.20
2022-11-09T06:33:41.125Z,93.38
2022-11-09T06:36:10.420Z,93.29
2022-11-09T06:38:39.665Z,93.14
2022-11-09T06:41:07.791Z,93.65
2022-11-09T06:43:35.499Z,92.98
2022-11-09T06:46:04.081Z,92.44
2022-11-09T06:48:32.122Z,93.18
2022-11-09T06:51:03.252Z,93.14
2022-11-09T06:53:32.243Z,93.03
2022-11-09T06:56:02.609Z,92.72
2022-11-09T06:58:31.131Z,93.24
2022-11-09T07:00:59.411Z,92.81
2022-11-09T07:03:27.596Z,93.69
2022-11-09T07:05:55.366Z,93.25
2022-11-09T07:08:23.207Z,93.30
2022-11-09T07:10:50.971Z,92.65
2022-11-09T07:13:20.593Z,92.91
2022-11-09T07:15:54.747Z,92.92
2022-11-09T07:18:22.486Z,93.18
2022-11-09T07:20:50.824Z,92.98
2022-11-09T07:23:19.115Z,92.49
2022-11-09T07:25:47.134Z,92.85
2022-11-09T07:28:16.152Z,92.44
2022-11-09T07:30:45.462Z,91.99
2022-11-09T07:33:15.567Z,91.64
2022-11-09T07:35:43.381Z,92.00
2022-11-09T07:38:11.315Z,92.12
2022-11-09T07:40:39.353Z,91.43
2022-11-09T07:43:07.829Z,90.62
2022-11-09T07:45:36.884Z,91.50
2022-11-09T07:48:08.747Z,91.12
2022-11-09T07:50:38.269Z,90.57
2022-11-09T07:53:07.654Z,90.52
2022-11-09T07:55:36.778Z,90.63
2022-11-09T07:58:08.224Z,91.12
2022-11-09T08:00:37.611Z,90.46
2022-11-09T08:03:08.317Z,91.30
2022-11-09T08:05:36.971Z,90.95
2022-11-09T08:08:06.554Z,90.58
2022-11-09T08:10:35.708Z,90.56
2022-11-09T08:13:06.661Z,91.02
2022-11-09T08:15:38.713Z,90.92
2022-11-09T08:18:10.865Z,90.70
2022-11-09T08:20:41.281Z,90.50
2022-11-09T08:23:12.990Z,90.97
2022-11-09T08:25:41.886Z,91.05
2022-11-09T08:28:14.540Z,89.92
2022-11-09T08:30:43.734Z,90.71
2022-11-09T08:33:13.562Z,90.32
2022-11-09T08:35:41.360Z,90.61
2022-11-09T08:38:09.289Z,90.28
2022-11-09T08:40:37.024Z,90.67
2022-11-09T08:43:06.431Z,90.40
2022-11-09T08:45:35.765Z,90.34
2022-11-09T08:48:04.689Z,89.80
2022-11-09T08:50:35.453Z,89.27
2022-11-09T08:53:04.703Z,89.45
2022-11-09T08:55:32.790Z,89.59
2022-11-09T08:58:02.483Z,89.00
2022-11-09T09:00:30.773Z,89.92
2022-11-09T09:02:59.082Z,89.52
2022-11-09T09:05:28.593Z,88.65
2022-11-09T09:07:59.538Z,88.73
2022-11-09T09:10:27.735Z,88.53
2022-11-09T09:12:55.534Z,87.69
2022-11-09T09:15:23.496Z,86.60
2022-11-09T09:17:51.289Z,86.67
2022-11-09T09:20:19.042Z,86.47
2022-11-09T09:22:46.762Z,86.07
2022-11-09T09:25:16.127Z,86.99
2022-11-09T09:27:45.883Z,86.84
2022-11-09T09:30:14.398Z,86.21
2022-11-09T09:32:42.789Z,86.44
2022-11-09T09:35:11.117Z,86.59
2022-11-09T09:37:38.899Z,85.69
2022-11-09T09:40:07.861Z,85.47
2022-11-09T09:42:38.708Z,85.27
2022-11-09T09:45:15.630Z,85.00
2022-11-09T09:47:50.486Z,84.86
2022-11-09T09:50:22.486Z,85.20
2022-11-09T09:53:24.257Z,84.56
2022-11-09T09:55:51.517Z,84.44
2022-11-09T09:58:26.454Z,84.05
2022-11-09T10:00:59.779Z,82.95
2022-11-09T10:03:27.772Z,83.20
2022-11-09T10:06:05.916Z,83.20
2022-11-09T10:08:46.310Z,83.19
2022-11-09T10:11:25.792Z,83.36
2022-11-09T10:14:30.999Z,82.82
2022-11-09T10:17:12.274Z,82.68
2022-11-09T10:19:55.643Z,82.13
2022-11-09T10:22:27.536Z,82.02
2022-11-09T10:27:53.234Z,80.88
2022-11-09T10:30:28.928Z,80.25
2022-11-09T10:32:59.018Z,80.09
2022-11-09T10:35:31.158Z,79.51
2022-11-09T10:37:58.945Z,78.48
2022-11-09T10:40:29.624Z,77.94
2022-11-09T10:42:59.534Z,77.03
2022-11-09T10:45:32.176Z,76.91
2022-11-09T10:48:00.800Z,76.73
2022-11-09T10:50:34.673Z,76.23
2022-11-09T10:53:10.930Z,76.22
2022-11-09T10:55:38.764Z,75.97
2022-11-09T10:58:22.271Z,74.91
2022-11-09T11:01:03.930Z,75.21
2022-11-09T11:03:35.604Z,74.94
2022-11-09T11:06:05.626Z,74.86
2022-11-09T11:08:37.204Z,75.42
2022-11-09T11:11:35.685Z,74.96
2022-11-09T11:14:17.190Z,75.07
2022-11-09T11:16:53.060Z,76.16
2022-11-09T11:19:38.406Z,74.72
2022-11-09T11:22:23.196Z,74.53
2022-11-09T11:24:59.011Z,74.89
2022-11-09T11:27:34.299Z,74.66
2022-11-09T11:30:08.346Z,74.33
2022-11-09T11:32:37.477Z,73.47
2022-11-09T11:35:13.032Z,73.92
2022-11-09T11:37:52.506Z,74.46
2022-11-09T11:40:26.014Z,74.30
2022-11-09T11:43:07.916Z,74.60
2022-11-09T11:45:42.804Z,73.45
2022-11-09T11:48:46.767Z,74.44
2022-11-09T11:51:19.516Z,75.02
2022-11-09T11:54:01.312Z,75.12
2022-11-09T11:56:34.453Z,75.05
2022-11-09T11:59:19.853Z,75.49
2022-11-09T12:02:01.939Z,75.80
2022-11-09T12:04:47.071Z,74.88
2022-11-09T12:07:31.088Z,74.04
2022-11-09T12:10:15.003Z,74.43
2022-11-09T12:12:53.412Z,75.34
2022-11-09T12:15:46.109Z,74.85
2022-11-09T12:18:28.432Z,74.05
2022-11-09T12:21:15.937Z,75.03
2022-11-09T12:24:01.500Z,74.82
2022-11-09T12:26:44.284Z,73.44
2022-11-09T12:29:20.368Z,73.07
2022-11-09T12:32:01.876Z,72.97
2022-11-09T12:34:35.182Z,71.64
2022-11-09T12:37:10.256Z,71.75
2022-11-09T12:39:41.889Z,72.02
2022-11-09T12:42:15.015Z,71.71
2022-11-09T12:44:49.148Z,71.88
2022-11-09T12:47:21.054Z,70.65
2022-11-09T12:49:49.077Z,70.90
2022-11-09T12:52:26.585Z,70.61
2022-11-09T12:54:55.761Z,71.24
2022-11-09T12:57:26.190Z,71.43
2022-11-09T12:59:55.621Z,71.80
2022-11-09T13:02:31.443Z,72.40
2022-11-09T13:05:01.088Z,72.33
2022-11-09T13:07:34.295Z,72.46
2022-11-09T13:10:03.347Z,71.91
2022-11-09T13:12:37.732Z,73.10
2022-11-09T13:15:24.328Z,73.72
2022-11-09T13:18:01.871Z,73.30
2022-11-09T13:20:56.525Z,73.00
2022-11-09T13:26:55.131Z,72.46
2022-11-09T13:29:26.122Z,72.50
2022-11-09T13:32:33.226Z,73.06
2022-11-09T13:35:02.606Z,73.84
2022-11-09T13:37:56.232Z,72.89
2022-11-09T13:40:46.987Z,72.71
2022-11-09T13:43:18.205Z,73.39
2022-11-09T13:45:48.321Z,73.64
2022-11-09T13:48:34.683Z,73.78
2022-11-09T13:51:05.388Z,74.14
2022-11-09T13:53:56.810Z,73.80
2022-11-09T13:56:35.090Z,73.87
2022-11-09T13:59:10.947Z,74.19
2022-11-09T14:01:47.903Z,74.75
2022-11-09T14:04:27.418Z,74.30
2022-11-09T14:07:03.585Z,74.01
2022-11-09T14:09:42.389Z,74.47
2022-11-09T14:12:27.589Z,74.79
2022-11-09T14:15:26.274Z,75.22
2022-11-09T14:18:08.542Z,75.20
2022-11-09T14:20:42.121Z,75.56
2022-11-09T14:23:18.180Z,75.26
2022-11-09T14:25:46.778Z,76.00
2022-11-09T14:28:28.053Z,75.04
2022-11-09T14:30:56.418Z,76.59
2022-11-09T14:33:26.871Z,75.69
2022-11-09T14:35:58.705Z,76.23
2022-11-09T14:38:31.015Z,76.89
2022-11-09T14:40:59.648Z,76.82
2022-11-09T14:43:32.644Z,76.87
2022-11-09T14:46:02.558Z,78.04
2022-11-09T14:48:32.938Z,78.74
2022-11-09T14:51:03.226Z,79.54
2022-11-09T14:53:33.486Z,81.48
2022-11-09T14:56:04.227Z,81.75
2022-11-09T14:58:37.076Z,82.94
2022-11-09T15:01:10.666Z,83.61
2022-11-09T15:03:38.421Z,83.43
2022-11-09T15:06:08.492Z,84.47
2022-11-09T15:08:40.231Z,83.99
2022-11-09T15:11:08.571Z,83.14
2022-11-09T15:13:40.618Z,82.99
2022-11-09T15:16:09.216Z,83.27
2022-11-09T15:18:43.841Z,81.82
2022-11-09T15:21:13.880Z,82.52
2022-11-09T15:23:43.917Z,82.49
2022-11-09T15:26:30.026Z,82.10
2022-11-09T15:28:59.184Z,82.80
2022-11-09T15:31:28.341Z,83.19
2022-11-09T15:33:57.714Z,81.76
2022-11-09T15:36:29.379Z,81.85
2022-11-09T15:39:01.000Z,82.86
2022-11-09T15:41:31.589Z,81.77
2022-11-09T15:44:00.757Z,82.45
2022-11-09T15:46:33.652Z,82.56
2022-11-09T15:49:13.972Z,82.11
2022-11-09T15:51:41.940Z,82.29
2022-11-09T15:54:09.904Z,82.20
2022-11-09T15:56:37.649Z,82.12
2022-11-09T15:59:07.594Z,81.60
2022-11-09T16:01:36.360Z,82.21
2022-11-09T16:04:04.256Z,81.50
2022-11-09T16:06:35.062Z,81.38
2022-11-09T16:09:05.099Z,81.12
2022-11-09T16:11:35.873Z,81.61
2022-11-09T16:14:04.618Z,81.42
2022-11-09T16:16:33.943Z,81.62
2022-11-09T16:19:02.541Z,81.74
2022-11-09T16:21:31.062Z,82.07
2022-11-09T16:23:59.702Z,81.67
2022-11-09T16:26:28.860Z,81.49
2022-11-09T16:28:56.843Z,81.55
2022-11-09T16:31:48.068Z,80.87
2022-11-09T16:34:16.071Z,80.38
2022-11-09T16:36:49.891Z,80.36
2022-11-09T16:39:21.942Z,80.69
2022-11-09T16:41:52.202Z,80.29
2022-11-09T16:44:23.599Z,80.59
2022-11-09T16:46:52.682Z,80.35
2022-11-09T16:49:22.429Z,80.49
2022-11-09T16:51:51.155Z,80.88
2022-11-09T16:54:19.082Z,80.57
2022-11-09T16:56:48.291Z,80.47
2022-11-09T16:59:16.646Z,80.01
2022-11-09T17:01:51.837Z,79.58
2022-11-09T17:15:52.778Z,78.77
2022-11-09T17:18:23.311Z,78.28
2022-11-09T17:20:53.196Z,78.78
2022-11-09T17:23:25.104Z,78.64
2022-11-09T17:26:06.490Z,78.54
2022-11-09T17:28:42.509Z,79.67
2022-11-09T17:31:59.861Z,79.07
2022-11-09T17:34:32.730Z,79.12
2022-11-09T17:37:05.031Z,79.79
2022-11-09T17:39:35.107Z,79.82
2022-11-09T17:42:04.438Z,80.11
2022-11-09T17:47:54.588Z,81.07
2022-11-09T17:50:24.323Z,81.22
2022-11-09T17:52:53.107Z,81.00
2022-11-09T17:55:23.678Z,81.46
2022-11-09T17:57:57.434Z,81.68
2022-11-09T18:00:29.284Z,81.62
2022-11-09T18:03:05.690Z,82.05
2022-11-09T18:05:40.946Z,82.22
2022-11-09T18:08:15.370Z,82.03
2022-11-09T18:10:46.593Z,82.32
2022-11-09T18:13:16.959Z,82.41
2022-11-09T18:15:51.634Z,82.18
2022-11-09T18:21:15.968Z,82.49
2022-11-09T18:24:09.643Z,82.11
2022-11-09T18:26:42.633Z,82.10
2022-11-09T18:29:14.893Z,82.21
2022-11-09T18:31:45.601Z,82.30
2022-11-09T18:34:17.232Z,81.95
2022-11-09T18:36:51.735Z,81.95
2022-11-09T18:39:28.881Z,81.96
2022-11-09T18:42:02.953Z,82.47
2022-11-09T18:44:41.650Z,82.99
2022-11-09T18:47:56.978Z,82.25
2022-11-09T18:50:31.429Z,82.42
2022-11-09T18:53:07.080Z,82.43
2022-11-09T18:55:41.870Z,82.52
2022-11-09T18:58:16.811Z,82.18
2022-11-09T19:00:55.170Z,82.38
2022-11-09T19:03:30.272Z,81.66
2022-11-09T19:06:06.525Z,81.84
2022-11-09T19:08:59.774Z,81.69
2022-11-09T19:11:33.008Z,82.35
2022-11-09T19:14:03.925Z,82.02
2022-11-09T19:16:38.138Z,81.95
2022-11-09T19:19:07.658Z,82.16
2022-11-09T19:21:40.806Z,81.92
2022-11-09T19:24:16.354Z,82.35
2022-11-09T19:27:03.182Z,82.22
2022-11-09T19:29:35.064Z,81.67
2022-11-09T19:32:10.606Z,82.21
2022-11-09T19:34:46.419Z,82.13
2022-11-09T19:37:18.658Z,82.14
2022-11-09T19:39:50.258Z,82.36
2022-11-09T19:42:19.694Z,82.67
2022-11-09T19:44:56.476Z,81.99
2022-11-09T19:47:36.203Z,82.33
2022-11-09T19:50:28.725Z,82.06
2022-11-09T19:53:22.679Z,82.52
2022-11-09T19:56:14.020Z,82.56
2022-11-09T19:59:31.678Z,83.26
2022-11-09T20:02:15.028Z,83.01
2022-11-09T20:04:46.864Z,82.94
2022-11-09T20:07:24.033Z,83.43
2022-11-09T20:09:57.854Z,83.31
2022-11-09T20:12:48.600Z,83.31
2022-11-09T20:15:17.735Z,83.46
2022-11-09T20:17:47.956Z,84.14
2022-11-09T20:20:19.205Z,84.24
2022-11-09T20:22:52.766Z,84.62
2022-11-09T20:25:22.200Z,85.05
2022-11-09T20:27:56.137Z,85.33
2022-11-09T20:30:50.810Z,86.26
2022-11-09T20:33:38.489Z,85.54
2022-11-09T20:39:22.223Z,85.65
2022-11-09T20:41:52.441Z,86.19
2022-11-09T20:44:22.801Z,86.81
2022-11-09T20:46:51.499Z,86.52
2022-11-09T20:49:20.633Z,86.09
2022-11-09T20:51:50.223Z,85.87
2022-11-09T20:54:19.933Z,85.85
2022-11-09T20:56:52.450Z,85.63
2022-11-09T20:59:23.290Z,85.21
2022-11-09T21:02:00.925Z,85.10
2022-11-09T21:04:31.690Z,85.60
2022-11-09T21:07:00.161Z,84.86
2022-11-09T21:09:28.320Z,85.66
2022-11-09T21:12:13.667Z,85.90
2022-11-09T21:14:43.540Z,85.71
2022-11-09T21:17:12.059Z,86.51
2022-11-09T21:19:40.002Z,86.54
2022-11-09T21:22:07.966Z,87.62
2022-11-09T21:24:54.152Z,87.78
2022-11-09T21:27:42.100Z,87.16
2022-11-09T21:30:14.991Z,88.00
2022-11-09T21:32:42.827Z,87.14
2022-11-09T21:35:10.767Z,87.82
2022-11-09T21:37:38.655Z,87.61
2022-11-09T21:40:08.421Z,88.27
2022-11-09T21:42:36.639Z,88.00
2022-11-09T21:45:05.192Z,88.21
2022-11-09T21:47:34.548Z,88.13
2022-11-09T21:50:02.391Z,88.07
2022-11-09T21:52:30.322Z,87.98
2022-11-09T21:54:59.050Z,88.01
2022-11-09T21:57:29.431Z,88.53
2022-11-09T22:00:48.267Z,87.94
2022-11-09T22:03:30.518Z,88.05
2022-11-09T22:06:03.250Z,87.81
2022-11-09T22:08:37.999Z,88.19
2022-11-09T22:11:10.508Z,88.30
2022-11-09T22:13:59.274Z,88.49
2022-11-09T22:16:32.721Z,88.61
2022-11-09T22:19:21.684Z,88.64
2022-11-09T22:21:49.862Z,88.62
2022-11-09T22:24:18.576Z,88.36
2022-11-09T22:26:46.884Z,88.17
2022-11-09T22:29:15.409Z,88.02
2022-11-09T22:31:43.563Z,87.97
2022-11-09T22:34:12.743Z,87.89
2022-11-09T22:36:40.641Z,88.18
2022-11-09T22:39:08.503Z,88.28
2022-11-09T22:41:36.374Z,87.94
2022-11-09T22:44:04.418Z,87.77
2022-11-09T22:46:32.815Z,87.67
2022-11-09T22:49:00.787Z,87.39
2022-11-09T22:51:30.097Z,87.32
2022-11-09T22:53:58.151Z,87.17
2022-11-09T22:56:26.158Z,88.17
2022-11-09T22:58:54.192Z,88.32
2022-11-09T23:01:22.317Z,87.51
2022-11-09T23:03:50.398Z,87.63
2022-11-09T23:06:21.609Z,87.86
2022-11-09T23:08:51.356Z,88.25
2022-11-09T23:11:21.909Z,88.46
2022-11-09T23:13:51.154Z,88.21
2022-11-09T23:16:19.171Z,87.38
2022-11-09T23:18:56.558Z,87.85
2022-11-09T23:21:28.138Z,88.86
2022-11-09T23:24:00.307Z,89.37
2022-11-09T23:26:28.071Z,89.27
2022-11-09T23:28:56.169Z,88.62
2022-11-09T23:31:25.063Z,88.75
2022-11-09T23:33:54.419Z,88.52
2022-11-09T23:36:23.260Z,88.71
2022-11-09T23:38:51.757Z,89.70
2022-11-09T23:41:21.509Z,89.19
2022-11-09T23:43:50.279Z,89.43
2022-11-09T23:46:18.629Z,90.21
2022-11-09T23:48:46.729Z,90.33
2022-11-09T23:51:14.648Z,89.24
2022-11-09T23:53:42.531Z,89.47
2022-11-09T23:56:12.685Z,89.68
2022-11-09T23:58:41.995Z,90.69
